»·PEaware :: DAL1644 KSLC-KLAS

DAL1644 :: KSLC-KLAS

FLIGHT INFORMATION

Flight Status: Arrived
Operator:
Delta Air Lines
More flights by this operator :: More flights under this callsign
Pilot: John C. (18682)
Aircraft: AIRBUS A320
(A320)
More flights by this aircraft type
Origin: KSLC Salt Lake City Intl
United States
Destination: KLAS McCarran Intl
United States
More flights between these airports :: More routes between these airports
Route: ARCHZ1 MLF MPIRE SITEE4
File this flight plan on PilotEdge
Remarks:
Altitude:
(Current/Filed)
30,000ft
Speed:
(Current/Filed)
448kts
Departed: 14-Mar-19 04:58 PM
Arrived: 14-Mar-19 05:52 PM
Distance/Time
Traveled:
319nm/0:53
Distance/Time
To Go:
Arrived

Flight Plot

Page will automatically refresh every two minutes.

Flight plan parsing failed; only flown route is shown


Map Options




Map Legend


Flown Route
Filed Route
Departure Airport
Arrival Airport
Navaid (VOR, NDB)
Fix

Horizontal Profiles

Position Reports

Time Latitude Longitude Heading Altitude Ground
Speed
14-Mar-19 16:36 40.787742 -111.981140 283 4236ft 0kts
14-Mar-19 16:37 40.787742 -111.981140 283 4236ft 0kts
14-Mar-19 16:38 40.787742 -111.981140 283 4236ft 0kts
14-Mar-19 16:39 40.787742 -111.981140 283 4236ft 0kts
14-Mar-19 16:40 40.787742 -111.981140 283 4236ft 0kts
14-Mar-19 16:41 40.787742 -111.981140 283 4236ft 0kts
14-Mar-19 16:42 40.787742 -111.981140 283 4236ft 0kts
14-Mar-19 16:43 40.787742 -111.981140 283 4236ft 0kts
14-Mar-19 16:44 40.787742 -111.981140 283 4236ft 0kts
14-Mar-19 16:45 40.787742 -111.981140 283 4236ft 0kts
14-Mar-19 16:46 40.787742 -111.981140 283 4236ft 0kts
14-Mar-19 16:47 40.787734 -111.981100 283 4236ft 2kts
14-Mar-19 16:48 40.787543 -111.980380 338 4236ft 2kts
14-Mar-19 16:49 40.787347 -111.980400 19 4236ft 0kts
14-Mar-19 16:50 40.787347 -111.980400 19 4236ft 0kts
14-Mar-19 16:51 40.787754 -111.980211 18 4236ft 12kts
14-Mar-19 16:52 40.789742 -111.977714 85 4236ft 6kts
14-Mar-19 16:53 40.784883 -111.976496 175 4236ft 25kts
14-Mar-19 16:54 40.778638 -111.975386 161 4236ft 21kts
14-Mar-19 16:56 40.774617 -111.974678 139 4236ft 1kts
14-Mar-19 16:57 40.776869 -111.973400 356 4236ft 39kts
14-Mar-19 16:58 40.813913 -111.977245 355 6014ft 160kts
14-Mar-19 16:59 40.866355 -111.980290 356 8216ft 224kts
14-Mar-19 17:00 40.923876 -112.022155 284 10535ft 287kts
14-Mar-19 17:01 40.876738 -112.111006 197 12081ft 366kts
14-Mar-19 17:02 40.775623 -112.147901 196 14464ft 386kts
14-Mar-19 17:03 40.670356 -112.186726 197 16667ft 402kts
14-Mar-19 17:04 40.560897 -112.227196 197 18662ft 416kts
14-Mar-19 17:05 40.451123 -112.267664 197 20424ft 428kts
14-Mar-19 17:06 40.334082 -112.310680 198 21934ft 445kts
14-Mar-19 17:07 40.213471 -112.354819 199 23448ft 456kts
14-Mar-19 17:08 40.089897 -112.399885 199 24807ft 467kts
14-Mar-19 17:09 39.963106 -112.445947 199 26075ft 478kts
14-Mar-19 17:10 39.843687 -112.489168 200 27143ft 487kts
14-Mar-19 17:11 39.712087 -112.536618 200 28157ft 496kts
14-Mar-19 17:12 39.578928 -112.584425 200 29265ft 499kts
14-Mar-19 17:13 39.445319 -112.632200 200 30371ft 498kts
14-Mar-19 17:14 39.314010 -112.678985 200 30396ft 498kts
14-Mar-19 17:14 39.202560 -112.718553 200 30395ft 498kts
14-Mar-19 17:16 39.046530 -112.773732 200 30416ft 500kts
14-Mar-19 17:17 38.912571 -112.820889 200 30424ft 498kts
14-Mar-19 17:17 38.803310 -112.859212 200 30410ft 493kts
14-Mar-19 17:18 38.671898 -112.905154 200 30357ft 489kts
14-Mar-19 17:20 38.518902 -112.958402 200 30344ft 488kts
14-Mar-19 17:20 38.409939 -112.996265 200 30356ft 487kts
14-Mar-19 17:21 38.285738 -113.059190 211 30379ft 479kts
14-Mar-19 17:22 38.165558 -113.133001 211 30374ft 478kts
14-Mar-19 17:23 38.045699 -113.206325 211 30344ft 478kts
14-Mar-19 17:24 37.925485 -113.279602 211 30337ft 479kts
14-Mar-19 17:25 37.805925 -113.352195 211 30290ft 474kts
14-Mar-19 17:26 37.686539 -113.424456 211 30339ft 475kts
14-Mar-19 17:27 37.566890 -113.496609 211 30339ft 475kts
14-Mar-19 17:28 37.447549 -113.568313 211 30331ft 476kts
14-Mar-19 17:29 37.327928 -113.639926 211 30331ft 476kts
14-Mar-19 17:30 37.268882 -113.675185 210 30332ft 477kts
14-Mar-19 17:31 37.149736 -113.746110 210 29036ft 472kts
14-Mar-19 17:32 37.032658 -113.815573 208 26741ft 463kts
14-Mar-19 17:33 36.917434 -113.883727 207 24498ft 450kts
14-Mar-19 17:34 36.808009 -113.948222 206 22464ft 435kts
14-Mar-19 17:35 36.699928 -114.011749 205 20277ft 423kts
14-Mar-19 17:36 36.595450 -114.073146 207 18101ft 410kts
14-Mar-19 17:37 36.526537 -114.180652 238 15875ft 397kts
14-Mar-19 17:38 36.468309 -114.294504 237 13714ft 386kts
14-Mar-19 17:39 36.412404 -114.403321 237 12366ft 353kts
14-Mar-19 17:40 36.362759 -114.499715 237 11540ft 317kts
14-Mar-19 17:41 36.316158 -114.590223 237 10498ft 308kts
14-Mar-19 17:42 36.252199 -114.650490 196 9646ft 298kts
14-Mar-19 17:43 36.177865 -114.682394 196 9043ft 266kts
14-Mar-19 17:44 36.107879 -114.712527 197 8321ft 264kts
14-Mar-19 17:45 36.075085 -114.784752 271 7289ft 263kts
14-Mar-19 17:46 36.074249 -114.872931 272 6075ft 247kts
14-Mar-19 17:47 36.073984 -114.954768 273 4787ft 214kts
14-Mar-19 17:48 36.073854 -115.021021 273 3722ft 176kts
14-Mar-19 17:49 36.073744 -115.077670 273 2832ft 148kts
14-Mar-19 17:50 36.073651 -115.128121 273 2083ft 147kts
14-Mar-19 17:51 36.074864 -115.150789 310 2122ft 19kts
14-Mar-19 17:52 36.078009 -115.150498 96 2115ft 21kts
14-Mar-19 17:53 36.077528 -115.143252 91 2091ft 21kts
14-Mar-19 17:54 36.080226 -115.141238 77 2080ft 11kts
14-Mar-19 17:55 36.080230 -115.140597 89 2078ft 0kts
14-Mar-19 17:56 36.080230 -115.140597 89 2078ft 0kts

Navigation Log

Ident Type
Flight plan parsing failed, navigation log unavailable